Time;durP1;ratioP1;P1;durP2;ratioP2;P2;SDS_P1;SDS_P2;PMS_P1;PMS_P2;Temp;Humidity;BMP_temperature;BMP_pressure;BME280_temperature;BME280_humidity;BME280_pressure;Samples;Min_cycle;Max_cycle;Signal;HPM_P1;HPM_P2
2023/03/29 00:01:00;;;;;;;2.50;1.88;;;10.20;75.70;;;;;;5038166;28;20058;-84
2023/03/29 00:03:27;;;;;;;2.53;1.85;;;10.20;75.70;;;;;;5036897;28;20057;-84
2023/03/29 00:06:04;;;;;;;2.70;2.05;;;10.20;75.70;;;;;;5047355;28;20025;-83
2023/03/29 00:08:32;;;;;;;2.38;1.90;;;10.20;75.80;;;;;;5040524;28;20374;-84
2023/03/29 00:10:59;;;;;;;1.88;1.75;;;10.20;75.80;;;;;;5035539;28;20033;-84
2023/03/29 00:13:26;;;;;;;2.45;1.92;;;10.10;75.80;;;;;;5023878;28;20081;-84
2023/03/29 00:15:55;;;;;;;2.30;1.83;;;10.20;76.40;;;;;;5013395;28;20044;-84
2023/03/29 00:18:22;;;;;;;1.85;1.73;;;10.20;75.80;;;;;;5031866;28;20030;-84
2023/03/29 00:20:58;;;;;;;2.47;1.88;;;10.20;75.80;;;;;;4995797;28;20024;-85
2023/03/29 00:23:24;;;;;;;1.92;1.73;;;10.20;75.90;;;;;;4994408;28;20038;-85
2023/03/29 00:25:52;;;;;;;2.58;2.05;;;10.10;75.80;;;;;;5012193;28;20117;-85
2023/03/29 00:28:18;;;;;;;3.63;2.13;;;10.10;75.80;;;;;;5012187;28;20229;-84
2023/03/29 00:30:45;;;;;;;2.33;2.00;;;10.10;75.90;;;;;;5013438;28;20071;-84
2023/03/29 00:33:11;;;;;;;2.17;1.80;;;10.10;75.90;;;;;;5024365;28;20476;-84
2023/03/29 00:35:38;;;;;;;2.65;2.00;;;10.10;76.00;;;;;;5023610;28;20466;-84
2023/03/29 00:38:05;;;;;;;2.40;2.00;;;10.10;76.00;;;;;;5001708;28;20030;-84
2023/03/29 00:40:32;;;;;;;1.80;1.70;;;10.00;75.90;;;;;;5031518;28;20028;-83
2023/03/29 00:42:59;;;;;;;3.65;2.10;;;10.00;75.90;;;;;;5028265;28;20429;-85
2023/03/29 00:45:29;;;;;;;2.60;2.00;;;10.00;76.00;;;;;;5024422;28;20086;-84
2023/03/29 00:47:56;;;;;;;4.03;1.92;;;10.00;76.00;;;;;;5013682;28;20033;-84
2023/03/29 00:50:30;;;;;;;2.00;1.73;;;10.00;76.00;;;;;;5025720;28;20026;-84
2023/03/29 00:52:59;;;;;;;2.58;1.92;;;10.00;76.00;;;;;;5031619;28;20022;-83
2023/03/29 00:55:27;;;;;;;3.25;2.00;;;10.00;76.00;;;;;;5031890;28;20025;-85
2023/03/29 00:57:56;;;;;;;2.53;2.00;;;10.00;76.10;;;;;;5013213;28;20112;-85
2023/03/29 01:00:30;;;;;;;2.35;1.90;;;10.00;76.10;;;;;;5023256;28;20040;-84
2023/03/29 01:02:58;;;;;;;2.78;1.98;;;9.90;76.10;;;;;;5026705;28;20084;-85
2023/03/29 01:05:34;;;;;;;2.55;2.00;;;10.00;76.10;;;;;;5033744;28;20021;-85
2023/03/29 01:08:09;;;;;;;2.33;1.90;;;10.00;76.10;;;;;;5015096;28;20025;-84
2023/03/29 01:10:40;;;;;;;1.85;1.67;;;9.90;76.10;;;;;;5006916;28;20038;-84
2023/03/29 01:13:10;;;;;;;2.25;1.90;;;10.00;76.20;;;;;;5040322;28;20049;-83
2023/03/29 01:15:39;;;;;;;2.47;1.95;;;9.90;76.10;;;;;;5041252;28;20049;-85
2023/03/29 01:18:06;;;;;;;1.92;1.73;;;9.90;76.10;;;;;;5036739;28;20022;-84
2023/03/29 01:20:55;;;;;;;2.33;1.92;;;9.90;76.10;;;;;;5043031;28;20068;-84
2023/03/29 01:23:27;;;;;;;2.00;1.80;;;9.90;76.20;;;;;;5035216;28;20856;-85
2023/03/29 01:26:25;;;;;;;2.15;1.83;;;9.90;76.20;;;;;;5052115;28;20487;-86
2023/03/29 01:29:01;;;;;;;2.33;1.75;;;9.90;76.30;;;;;;5034480;28;20850;-84
2023/03/29 01:31:35;;;;;;;1.88;1.65;;;9.90;76.20;;;;;;5026581;28;20103;-84
2023/03/29 01:34:17;;;;;;;2.47;2.05;;;9.80;76.20;;;;;;5048738;28;20056;-83
2023/03/29 01:37:00;;;;;;;1.95;1.80;;;9.90;76.30;;;;;;5032259;28;20032;-83
2023/03/29 01:39:26;;;;;;;2.42;1.90;;;9.80;76.30;;;;;;5027500;28;20120;-85
2023/03/29 01:42:08;;;;;;;2.97;1.95;;;9.80;76.30;;;;;;5013946;28;20032;-84
2023/03/29 01:44:45;;;;;;;2.67;2.10;;;9.80;76.30;;;;;;5052301;28;20025;-85
2023/03/29 01:47:26;;;;;;;1.85;1.70;;;9.80;76.40;;;;;;5048765;28;20036;-85
2023/03/29 01:49:56;;;;;;;2.50;2.00;;;9.80;76.40;;;;;;5046716;28;20040;-85
2023/03/29 01:52:28;;;;;;;2.53;1.90;;;9.70;76.30;;;;;;5045307;28;20070;-84
2023/03/29 01:54:59;;;;;;;2.58;1.80;;;9.70;76.40;;;;;;5041978;28;20032;-87
2023/03/29 01:57:26;;;;;;;2.20;1.90;;;9.70;76.40;;;;;;5049988;28;20032;-86
2023/03/29 01:59:54;;;;;;;2.35;1.88;;;9.70;76.40;;;;;;5030207;28;20025;-85
2023/03/29 02:02:23;;;;;;;2.08;1.85;;;9.70;76.40;;;;;;5052632;28;20032;-86
2023/03/29 02:04:53;;;;;;;2.45;1.90;;;9.70;76.40;;;;;;5029141;28;20025;-86
2023/03/29 02:07:24;;;;;;;1.88;1.77;;;9.70;76.40;;;;;;5049202;28;20025;-88
2023/03/29 02:09:52;;;;;;;2.47;2.10;;;9.70;76.50;;;;;;5040085;28;20476;-86
2023/03/29 02:12:19;;;;;;;2.42;2.08;;;9.70;76.50;;;;;;5034897;28;20055;-86
2023/03/29 02:14:44;;;;;;;2.20;1.75;;;9.70;76.40;;;;;;5034572;28;20135;-85
2023/03/29 02:17:18;;;;;;;2.15;1.77;;;9.70;76.40;;;;;;5047196;28;20060;-85
2023/03/29 02:19:52;;;;;;;2.97;1.80;;;9.70;76.40;;;;;;5034219;28;20043;-84
2023/03/29 02:22:26;;;;;;;2.47;1.90;;;9.70;76.40;;;;;;5060414;28;20029;-86
2023/03/29 02:24:57;;;;;;;2.50;1.67;;;9.70;76.40;;;;;;5054069;28;20033;-85
2023/03/29 02:27:27;;;;;;;2.13;1.80;;;9.70;76.40;;;;;;5052172;28;20025;-85
2023/03/29 02:29:54;;;;;;;2.05;1.70;;;9.70;76.40;;;;;;5031560;28;20044;-87
2023/03/29 02:32:44;;;;;;;2.53;1.95;;;9.60;76.30;;;;;;5028029;28;20039;-85
2023/03/29 02:35:15;;;;;;;1.80;1.70;;;9.60;76.40;;;;;;5026296;28;20023;-85
2023/03/29 02:37:45;;;;;;;2.50;1.85;;;9.70;76.40;;;;;;5034055;28;20412;-85
2023/03/29 02:40:13;;;;;;;2.33;1.90;;;9.60;76.30;;;;;;5047912;28;20060;-85
2023/03/29 02:42:41;;;;;;;2.67;1.77;;;9.70;76.40;;;;;;5038180;28;20036;-84
2023/03/29 02:45:11;;;;;;;2.42;1.80;;;9.60;76.30;;;;;;5032406;28;20032;-84
2023/03/29 02:47:50;;;;;;;2.67;1.95;;;9.60;76.30;;;;;;5029801;28;20840;-85
2023/03/29 02:50:18;;;;;;;2.70;2.05;;;9.60;76.40;;;;;;5042607;28;20083;-84
2023/03/29 02:53:01;;;;;;;3.25;2.10;;;9.60;76.40;;;;;;5029526;28;20055;-85
2023/03/29 02:55:33;;;;;;;2.58;1.77;;;9.60;76.40;;;;;;5040670;28;20421;-85
2023/03/29 02:58:07;;;;;;;2.50;1.80;;;9.60;76.40;;;;;;5046352;28;20029;-85
2023/03/29 03:00:39;;;;;;;1.98;1.77;;;9.60;76.40;;;;;;5042977;28;20098;-86
2023/03/29 03:03:07;;;;;;;2.88;2.03;;;9.60;76.40;;;;;;5049460;28;20035;-85
2023/03/29 03:05:33;;;;;;;2.05;1.70;;;9.60;76.40;;;;;;5045696;28;20029;-85
2023/03/29 03:07:59;;;;;;;1.98;1.75;;;9.60;76.30;;;;;;5041656;28;20053;-85
2023/03/29 03:10:25;;;;;;;2.38;1.90;;;9.60;76.30;;;;;;5030090;28;20084;-85
2023/03/29 03:12:51;;;;;;;2.38;1.77;;;9.70;76.40;;;;;;5050326;28;20049;-86
2023/03/29 03:15:17;;;;;;;2.05;1.80;;;9.60;76.40;;;;;;5034800;28;20470;-85
2023/03/29 03:17:43;;;;;;;2.78;2.00;;;9.60;76.40;;;;;;5020230;28;20585;-85
2023/03/29 03:20:13;;;;;;;2.65;2.03;;;9.60;76.30;;;;;;5033830;28;20402;-86
2023/03/29 03:22:44;;;;;;;2.10;1.88;;;9.60;76.30;;;;;;5035937;28;20021;-85
2023/03/29 03:25:10;;;;;;;2.20;1.58;;;9.60;76.40;;;;;;5038406;28;20467;-85
2023/03/29 03:27:37;;;;;;;2.38;1.88;;;9.60;76.30;;;;;;5029983;28;20060;-85
2023/03/29 03:30:05;;;;;;;2.58;2.10;;;9.60;76.40;;;;;;5041738;28;20038;-85
2023/03/29 03:32:56;;;;;;;2.72;1.90;;;9.60;76.40;;;;;;5030197;28;20041;-85
2023/03/29 03:35:31;;;;;;;2.22;1.90;;;9.70;76.40;;;;;;5043072;28;20038;-85
2023/03/29 03:37:57;;;;;;;2.33;2.10;;;9.60;76.30;;;;;;5032287;28;20028;-84
2023/03/29 03:40:23;;;;;;;2.53;2.03;;;9.60;76.30;;;;;;5032075;28;20029;-86
2023/03/29 03:42:49;;;;;;;3.28;2.20;;;9.60;76.30;;;;;;5043192;28;20108;-86
2023/03/29 03:45:15;;;;;;;2.00;1.80;;;9.70;76.50;;;;;;5030192;28;20075;-86
2023/03/29 03:48:00;;;;;;;3.38;2.10;;;9.60;76.30;;;;;;5048123;28;20059;-85
2023/03/29 03:50:55;;;;;;;2.03;1.80;;;9.60;76.30;;;;;;5030881;28;20048;-86
2023/03/29 03:53:22;;;;;;;2.55;2.10;;;9.60;76.40;;;;;;5053351;28;20035;-85
2023/03/29 03:56:09;;;;;;;3.33;2.10;;;9.60;76.40;;;;;;5048975;28;20469;-85
2023/03/29 03:59:05;;;;;;;2.42;1.85;;;9.60;76.40;;;;;;5027097;28;20362;-88
2023/03/29 04:01:54;;;;;;;2.08;1.88;;;9.60;76.30;;;;;;5030734;28;20436;-85
2023/03/29 04:04:22;;;;;;;2.83;1.90;;;9.60;76.30;;;;;;5053403;28;20036;-84
2023/03/29 04:07:20;;;;;;;1.92;1.70;;;9.60;76.40;;;;;;5027406;28;20018;-85
2023/03/29 04:10:23;;;;;;;1.95;1.77;;;9.60;76.40;;;;;;5027389;28;20060;-86
2023/03/29 04:13:01;;;;;;;2.33;1.95;;;9.60;76.40;;;;;;5023876;28;20049;-84
2023/03/29 04:15:28;;;;;;;2.72;2.05;;;9.60;76.40;;;;;;5033023;28;20040;-84
2023/03/29 04:18:03;;;;;;;2.58;1.88;;;9.60;76.40;;;;;;5045227;28;20041;-84
2023/03/29 04:20:33;;;;;;;3.22;2.08;;;9.60;77.00;;;;;;5026409;28;20045;-86
2023/03/29 04:22:59;;;;;;;2.05;1.85;;;9.60;76.40;;;;;;5047570;28;20032;-85
2023/03/29 04:25:27;;;;;;;2.70;1.80;;;9.60;76.40;;;;;;5017111;28;20079;-84
2023/03/29 04:28:13;;;;;;;2.10;1.88;;;9.60;76.40;;;;;;5021842;28;21084;-86
2023/03/29 04:30:45;;;;;;;2.38;1.90;;;9.60;76.40;;;;;;5038075;28;20055;-84
2023/03/29 04:33:14;;;;;;;1.95;1.77;;;9.60;76.40;;;;;;5049510;28;20269;-86
2023/03/29 04:35:51;;;;;;;2.75;2.08;;;9.60;76.50;;;;;;5033208;28;20044;-85
2023/03/29 04:38:21;;;;;;;2.33;1.90;;;9.60;76.40;;;;;;5029902;28;20175;-85
2023/03/29 04:40:49;;;;;;;2.60;1.98;;;9.60;76.50;;;;;;5025638;28;20061;-84
2023/03/29 04:43:45;;;;;;;2.40;1.90;;;9.60;76.50;;;;;;5036514;28;20037;-84
2023/03/29 04:46:20;;;;;;;2.10;1.90;;;9.60;76.50;;;;;;5042744;28;20478;-84
2023/03/29 04:48:58;;;;;;;2.13;1.70;;;9.60;76.50;;;;;;5043324;28;20392;-85
2023/03/29 04:51:32;;;;;;;2.40;1.85;;;9.60;76.50;;;;;;5035466;28;20114;-86
2023/03/29 04:53:58;;;;;;;3.10;1.98;;;9.60;76.50;;;;;;5029268;28;20044;-86
2023/03/29 04:56:25;;;;;;;1.92;1.75;;;9.60;76.50;;;;;;5029504;28;20025;-87
2023/03/29 04:59:11;;;;;;;2.33;1.90;;;9.60;76.50;;;;;;5054394;28;20051;-86
2023/03/29 05:01:38;;;;;;;2.22;1.88;;;9.60;76.50;;;;;;5049067;28;20113;-85
2023/03/29 05:04:04;;;;;;;2.30;1.80;;;9.60;76.60;;;;;;5043255;28;20479;-86
2023/03/29 05:06:37;;;;;;;2.58;2.20;;;9.60;76.50;;;;;;5025190;28;20038;-86
2023/03/29 05:09:07;;;;;;;2.50;2.20;;;9.60;76.50;;;;;;5050042;28;20083;-86
2023/03/29 05:11:48;;;;;;;1.92;1.80;;;9.60;76.50;;;;;;5035700;28;20036;-84
2023/03/29 05:14:14;;;;;;;2.70;2.00;;;9.70;76.60;;;;;;5030034;28;20033;-85
2023/03/29 05:16:42;;;;;;;1.95;1.77;;;9.60;76.50;;;;;;5051006;28;20029;-85
2023/03/29 05:19:10;;;;;;;2.75;2.00;;;9.60;76.50;;;;;;5033122;28;20032;-87
2023/03/29 05:21:40;;;;;;;2.45;2.00;;;9.60;76.50;;;;;;5031250;28;20106;-85
2023/03/29 05:24:08;;;;;;;2.85;1.80;;;9.60;76.50;;;;;;5039227;28;20034;-86
2023/03/29 05:26:58;;;;;;;3.05;1.88;;;9.60;76.50;;;;;;5025092;28;20408;-84
2023/03/29 05:29:25;;;;;;;2.15;1.83;;;9.60;76.50;;;;;;5045349;28;20041;-84
2023/03/29 05:32:00;;;;;;;2.35;2.00;;;9.60;76.60;;;;;;5031452;28;20496;-84
2023/03/29 05:34:26;;;;;;;2.38;1.90;;;9.60;76.60;;;;;;5048579;28;20055;-86
2023/03/29 05:36:58;;;;;;;2.45;1.80;;;9.70;76.60;;;;;;5035003;28;20025;-84
2023/03/29 05:39:26;;;;;;;2.20;1.95;;;9.60;76.60;;;;;;5022160;28;20065;-87
2023/03/29 05:41:53;;;;;;;2.15;1.80;;;9.60;76.60;;;;;;5021603;28;20112;-83
2023/03/29 05:44:41;;;;;;;1.75;1.65;;;9.60;76.60;;;;;;5036752;28;20272;-84
2023/03/29 05:47:15;;;;;;;2.08;1.63;;;9.60;76.50;;;;;;5056019;28;20063;-85
2023/03/29 05:49:41;;;;;;;1.85;1.65;;;9.60;76.60;;;;;;5013362;28;20029;-84
2023/03/29 05:52:11;;;;;;;2.45;2.00;;;9.60;76.60;;;;;;5016081;28;20025;-84
2023/03/29 05:54:38;;;;;;;2.17;1.98;;;9.60;76.60;;;;;;5036065;28;20058;-84
2023/03/29 05:57:05;;;;;;;2.53;1.95;;;9.60;76.50;;;;;;5033812;28;20112;-85
2023/03/29 05:59:31;;;;;;;2.88;2.00;;;9.60;76.60;;;;;;5045382;28;20148;-84
2023/03/29 06:01:59;;;;;;;1.90;1.70;;;9.60;76.60;;;;;;5044391;28;20033;-84
2023/03/29 06:04:25;;;;;;;2.40;1.95;;;9.60;76.60;;;;;;5034931;28;20101;-84
2023/03/29 06:07:11;;;;;;;1.88;1.67;;;9.60;76.60;;;;;;5010182;28;20030;-84
2023/03/29 06:09:38;;;;;;;2.20;2.00;;;9.60;76.60;;;;;;5031705;28;20063;-85
2023/03/29 06:12:05;;;;;;;2.33;1.85;;;9.60;76.60;;;;;;5050729;28;20097;-84
2023/03/29 06:14:37;;;;;;;2.15;1.92;;;9.60;76.60;;;;;;5028965;28;20017;-86
2023/03/29 06:17:17;;;;;;;2.53;2.03;;;9.60;76.60;;;;;;5040376;28;20151;-86
2023/03/29 06:19:45;;;;;;;2.20;1.98;;;9.70;76.60;;;;;;4996884;28;20098;-86
2023/03/29 06:22:10;;;;;;;2.53;1.92;;;9.60;76.60;;;;;;5038262;28;20025;-86
2023/03/29 06:24:36;;;;;;;2.13;1.80;;;9.60;76.60;;;;;;5037200;28;20032;-85
2023/03/29 06:27:09;;;;;;;2.40;1.90;;;9.60;76.60;;;;;;5049422;28;20522;-85
2023/03/29 06:29:35;;;;;;;2.10;1.90;;;9.60;76.60;;;;;;5047864;28;20124;-84
2023/03/29 06:32:00;;;;;;;2.72;2.10;;;9.60;76.60;;;;;;5041570;28;20409;-85
2023/03/29 06:34:56;;;;;;;2.03;1.83;;;9.70;76.70;;;;;;5038827;28;20489;-85
2023/03/29 06:37:48;;;;;;;1.92;1.73;;;9.70;76.60;;;;;;5038226;28;20032;-85
2023/03/29 06:40:20;;;;;;;2.85;1.80;;;9.70;76.70;;;;;;5028755;28;20044;-86
2023/03/29 06:42:47;;;;;;;2.38;2.00;;;9.70;76.60;;;;;;5052946;28;20462;-85
2023/03/29 06:45:34;;;;;;;2.35;2.05;;;9.70;76.70;;;;;;5041643;28;20041;-84
2023/03/29 06:48:05;;;;;;;1.77;1.65;;;9.70;76.60;;;;;;5038318;28;20461;-86
2023/03/29 06:50:31;;;;;;;2.30;1.90;;;9.70;76.70;;;;;;5027065;28;20044;-86
2023/03/29 06:53:09;;;;;;;2.40;2.05;;;9.70;76.70;;;;;;5039861;28;20372;-85
2023/03/29 06:55:35;;;;;;;2.85;2.10;;;9.70;76.60;;;;;;5023035;28;20032;-85
2023/03/29 06:58:18;;;;;;;1.85;1.73;;;9.70;76.70;;;;;;5044230;28;20381;-85
2023/03/29 07:00:44;;;;;;;3.35;2.10;;;9.80;76.70;;;;;;5024073;28;20133;-87
2023/03/29 07:03:22;;;;;;;2.75;2.15;;;9.80;76.70;;;;;;5040216;28;20109;-86
2023/03/29 07:05:51;;;;;;;2.47;1.95;;;9.70;76.70;;;;;;5028184;28;20044;-86
2023/03/29 07:08:19;;;;;;;2.35;2.10;;;9.80;76.80;;;;;;5030853;28;20037;-87
2023/03/29 07:10:57;;;;;;;2.22;1.83;;;9.80;76.80;;;;;;5037004;28;20461;-85
2023/03/29 07:13:45;;;;;;;2.20;2.00;;;9.80;76.80;;;;;;5050515;28;20048;-86
2023/03/29 07:16:16;;;;;;;2.42;2.08;;;9.80;76.70;;;;;;5021839;28;20123;-86
2023/03/29 07:18:50;;;;;;;3.47;2.25;;;9.80;76.70;;;;;;5029267;28;20040;-92
2023/03/29 07:21:34;;;;;;;2.43;2.17;;;9.80;76.60;;;;;;5034369;28;20118;-88
2023/03/29 07:24:01;;;;;;;2.30;2.10;;;9.90;76.70;;;;;;5024168;28;20084;-87
2023/03/29 07:26:27;;;;;;;2.70;2.00;;;9.90;76.70;;;;;;5050256;28;20021;-87
2023/03/29 07:28:53;;;;;;;2.17;1.98;;;9.90;76.80;;;;;;5009650;28;20029;-87
2023/03/29 07:31:19;;;;;;;2.38;2.17;;;9.90;76.80;;;;;;5042374;28;20044;-87
2023/03/29 07:33:52;;;;;;;3.00;2.28;;;9.90;76.80;;;;;;5049515;28;20045;-89
2023/03/29 07:36:18;;;;;;;3.85;2.20;;;9.90;76.70;;;;;;5041627;28;20036;-87
2023/03/29 07:38:44;;;;;;;2.10;1.90;;;9.90;76.70;;;;;;5019816;28;20041;-87
2023/03/29 07:41:15;;;;;;;2.55;2.08;;;9.90;76.70;;;;;;5033993;28;20063;-87
2023/03/29 07:44:03;;;;;;;2.88;2.10;;;10.00;76.70;;;;;;5038083;28;20029;-87
2023/03/29 07:46:32;;;;;;;3.05;2.20;;;10.00;76.70;;;;;;5039703;28;20460;-86
2023/03/29 07:48:57;;;;;;;3.28;2.15;;;10.00;76.70;;;;;;5026246;28;20080;-86
2023/03/29 07:51:23;;;;;;;2.60;2.08;;;10.00;76.70;;;;;;5029984;28;20486;-87
2023/03/29 07:54:00;;;;;;;3.47;2.17;;;10.00;76.70;;;;;;5031808;28;20103;-86
2023/03/29 07:56:49;;;;;;;2.20;1.95;;;10.10;76.80;;;;;;5016431;28;20034;-86
2023/03/29 07:59:34;;;;;;;3.67;2.10;;;10.10;76.70;;;;;;5045117;28;20095;-87
2023/03/29 08:02:12;;;;;;;4.07;2.10;;;10.10;76.70;;;;;;5037491;28;20321;-87
2023/03/29 08:04:42;;;;;;;2.75;2.10;;;10.00;76.70;;;;;;5028679;28;20025;-85
2023/03/29 08:07:17;;;;;;;2.55;2.13;;;10.10;76.80;;;;;;5031351;28;20048;-86
2023/03/29 08:09:56;;;;;;;3.45;2.40;;;10.10;76.80;;;;;;5031610;28;20084;-87
2023/03/29 08:12:32;;;;;;;3.08;2.15;;;10.10;76.80;;;;;;5037948;28;20037;-86
2023/03/29 08:14:59;;;;;;;3.28;2.22;;;10.20;76.80;;;;;;4979624;28;20022;-85
2023/03/29 08:17:32;;;;;;;3.00;2.40;;;10.20;76.80;;;;;;4997427;28;20054;-87
2023/03/29 08:19:58;;;;;;;2.85;2.10;;;10.20;76.70;;;;;;4991410;28;20034;-86
2023/03/29 08:22:24;;;;;;;3.08;2.30;;;10.20;76.70;;;;;;5004373;28;20026;-86
2023/03/29 08:25:10;;;;;;;2.72;2.30;;;10.20;76.70;;;;;;5013550;28;20422;-87
2023/03/29 08:27:42;;;;;;;2.97;2.17;;;10.30;76.70;;;;;;5004024;28;20034;-86
2023/03/29 08:30:10;;;;;;;3.95;2.35;;;10.30;76.60;;;;;;5023238;28;20029;-86
2023/03/29 08:32:38;;;;;;;3.55;2.20;;;10.30;76.60;;;;;;5012361;28;20049;-86
2023/03/29 08:35:08;;;;;;;2.70;2.30;;;10.30;76.60;;;;;;5009296;28;20064;-86
2023/03/29 08:37:57;;;;;;;3.30;2.25;;;10.40;76.60;;;;;;5021017;28;20038;-88
2023/03/29 08:40:26;;;;;;;3.08;2.22;;;10.40;76.50;;;;;;5023138;28;20124;-87
2023/03/29 08:43:21;;;;;;;;;;;10.50;76.60;;;;;;5010938;28;20022;-87
2023/03/29 08:46:31;;;;;;;2.65;2.22;;;10.40;76.40;;;;;;5038623;28;19923;-87
2023/03/29 08:49:08;;;;;;;4.38;2.60;;;10.50;76.40;;;;;;5030303;28;20048;-86
2023/03/29 08:51:48;;;;;;;2.75;2.15;;;10.50;76.40;;;;;;5013699;28;20247;-87
2023/03/29 08:54:23;;;;;;;3.65;2.38;;;10.50;76.50;;;;;;5024771;28;20037;-87
2023/03/29 08:57:16;;;;;;;2.42;2.10;;;10.60;76.50;;;;;;5056610;28;20039;-87
2023/03/29 08:59:51;;;;;;;3.28;2.35;;;10.60;76.50;;;;;;5026285;28;20038;-87
2023/03/29 09:02:22;;;;;;;2.78;2.28;;;10.70;76.40;;;;;;5023203;28;20022;-87
2023/03/29 09:04:55;;;;;;;3.55;2.67;;;10.70;76.40;;;;;;5029183;28;20028;-87
2023/03/29 09:07:34;;;;;;;2.70;2.25;;;10.70;76.30;;;;;;5017877;28;20120;-87
2023/03/29 09:10:00;;;;;;;4.05;2.70;;;10.80;76.30;;;;;;5026167;28;20561;-88
2023/03/29 09:12:55;;;;;;;3.83;2.78;;;10.80;76.20;;;;;;5015247;28;20112;-88
2023/03/29 09:15:27;;;;;;;3.80;2.75;;;10.90;76.30;;;;;;5010027;28;20041;-88
2023/03/29 09:18:22;;;;;;;3.72;2.60;;;10.90;76.20;;;;;;5027132;28;20040;-92
2023/03/29 09:21:25;;;;;;;4.13;2.58;;;11.00;76.30;;;;;;5027904;28;20159;-91
2023/03/29 09:23:58;;;;;;;3.33;2.40;;;11.00;76.20;;;;;;5011976;28;20057;-89
2023/03/29 09:26:55;;;;;;;4.20;2.47;;;11.00;76.10;;;;;;5010897;28;20501;-90
2023/03/29 09:29:57;;;;;;;3.78;2.63;;;11.10;76.20;;;;;;5009707;28;20034;-89
2023/03/29 09:32:50;;;;;;;3.63;2.55;;;11.20;76.10;;;;;;5025319;28;20026;-88
2023/03/29 09:35:22;;;;;;;4.50;2.75;;;11.20;76.00;;;;;;5011089;28;20073;-89
2023/03/29 09:37:51;;;;;;;3.45;2.45;;;11.20;76.00;;;;;;5009374;28;20053;-89
2023/03/29 09:40:27;;;;;;;3.55;2.83;;;11.20;76.00;;;;;;5009271;28;20057;-88
2023/03/29 09:43:06;;;;;;;4.88;2.90;;;11.30;76.10;;;;;;5036981;28;20379;-88
2023/03/29 09:45:35;;;;;;;4.65;3.00;;;11.40;76.00;;;;;;4991998;28;20046;-88
2023/03/29 09:48:16;;;;;;;3.95;2.95;;;11.40;76.00;;;;;;5010692;28;20059;-88
2023/03/29 09:50:50;;;;;;;4.15;2.75;;;11.40;76.00;;;;;;5005122;28;20049;-88
2023/03/29 09:53:20;;;;;;;4.38;3.03;;;11.50;75.90;;;;;;5018926;28;20033;-88
2023/03/29 09:55:56;;;;;;;5.38;3.25;;;11.50;75.90;;;;;;5014521;28;20017;-88
2023/03/29 09:58:35;;;;;;;4.18;3.20;;;11.60;75.90;;;;;;5020453;28;20022;-89
2023/03/29 10:01:09;;;;;;;4.40;3.25;;;11.60;75.80;;;;;;4981592;28;20087;-89
2023/03/29 10:03:35;;;;;;;4.72;3.17;;;11.70;75.80;;;;;;5019335;28;20059;-89
2023/03/29 10:06:15;;;;;;;4.10;2.75;;;11.80;75.80;;;;;;4997141;28;20045;-89
2023/03/29 10:08:51;;;;;;;4.13;3.03;;;11.80;75.70;;;;;;5027863;28;20037;-88
2023/03/29 10:11:22;;;;;;;4.22;3.13;;;11.90;75.80;;;;;;5021438;28;20092;-87
2023/03/29 10:13:53;;;;;;;4.68;3.47;;;12.00;75.70;;;;;;5031864;28;20033;-89
2023/03/29 10:16:29;;;;;;;4.60;3.20;;;12.00;75.70;;;;;;5050504;28;20464;-89
2023/03/29 10:18:55;;;;;;;5.07;3.38;;;12.00;75.70;;;;;;5032367;28;20055;-89
2023/03/29 10:21:27;;;;;;;4.95;3.60;;;12.10;75.70;;;;;;5046149;28;20029;-88
2023/03/29 10:23:58;;;;;;;4.82;3.20;;;12.10;75.60;;;;;;5049052;28;20028;-89
2023/03/29 10:26:27;;;;;;;4.95;3.50;;;12.20;75.70;;;;;;5042917;28;20082;-88
2023/03/29 10:28:56;;;;;;;5.07;3.10;;;12.20;75.60;;;;;;5049811;28;20139;-88
2023/03/29 10:31:23;;;;;;;4.60;2.95;;;12.30;75.60;;;;;;5035000;28;20477;-89
2023/03/29 10:33:55;;;;;;;4.88;3.55;;;12.30;75.60;;;;;;5038773;28;20027;-89
2023/03/29 10:36:25;;;;;;;5.20;3.58;;;12.40;75.60;;;;;;5056068;28;20146;-89
2023/03/29 10:38:53;;;;;;;4.55;3.45;;;12.40;75.50;;;;;;5033523;28;20025;-89
2023/03/29 10:41:21;;;;;;;4.90;3.50;;;12.50;75.60;;;;;;5044415;28;20479;-89
2023/03/29 10:43:50;;;;;;;4.55;3.25;;;12.60;75.60;;;;;;5059367;28;20498;-89
2023/03/29 10:46:31;;;;;;;4.78;3.38;;;12.60;75.60;;;;;;5048059;28;20439;-93
2023/03/29 10:49:00;;;;;;;5.32;3.70;;;12.60;75.60;;;;;;5068886;28;20059;-90
2023/03/29 10:51:29;;;;;;;4.70;3.33;;;12.70;75.50;;;;;;5033795;28;20032;-89
2023/03/29 10:53:58;;;;;;;5.70;3.90;;;12.70;75.50;;;;;;5035383;28;20020;-92
2023/03/29 10:56:37;;;;;;;5.45;3.85;;;12.80;75.50;;;;;;5038072;28;20060;-91
2023/03/29 10:59:30;;;;;;;5.63;4.00;;;12.90;75.50;;;;;;5040072;28;20061;-94
2023/03/29 11:02:14;;;;;;;4.47;3.28;;;12.90;75.60;;;;;;5045783;28;20033;-89
2023/03/29 11:05:01;;;;;;;4.90;3.55;;;12.90;75.50;;;;;;5047175;28;20103;-91
2023/03/29 11:08:00;;;;;;;4.68;3.45;;;13.00;75.50;;;;;;5035159;28;20048;-91
2023/03/29 11:10:45;;;;;;;5.00;3.58;;;13.00;75.50;;;;;;5056964;28;20033;-94
2023/03/29 11:13:20;;;;;;;4.53;3.25;;;13.10;75.40;;;;;;5064592;28;20055;-93
2023/03/29 11:16:17;;;;;;;5.30;3.55;;;13.10;75.40;;;;;;5042050;28;20025;-94
2023/03/29 11:18:55;;;;;;;4.90;3.72;;;13.20;75.50;;;;;;5055863;28;20299;-95
2023/03/29 11:21:36;;;;;;;4.55;3.55;;;13.20;75.40;;;;;;5056645;28;20031;-92
2023/03/29 11:24:11;;;;;;;4.18;3.22;;;13.20;75.50;;;;;;5067305;28;20115;-92
2023/03/29 11:27:12;;;;;;;4.07;3.25;;;13.30;75.50;;;;;;5030242;28;20028;-91
2023/03/29 11:30:05;;;;;;;4.90;3.60;;;13.30;75.40;;;;;;5036614;28;20036;-90
2023/03/29 11:32:47;;;;;;;4.63;3.35;;;13.40;75.40;;;;;;5049090;28;20088;-93
2023/03/29 11:35:45;;;;;;;5.20;3.80;;;13.40;75.40;;;;;;5049676;28;20035;-90
2023/03/29 11:38:57;;;;;;;4.38;3.35;;;13.50;75.40;;;;;;5053898;28;20016;-91
2023/03/29 11:41:35;;;;;;;5.13;3.25;;;13.50;75.40;;;;;;5031862;28;20033;-88
2023/03/29 11:44:19;;;;;;;5.35;3.47;;;13.60;75.40;;;;;;5037764;28;20025;-88
2023/03/29 11:46:59;;;;;;;4.68;3.22;;;13.60;75.40;;;;;;5047887;28;20081;-88
2023/03/29 11:49:39;;;;;;;4.60;3.40;;;13.70;75.40;;;;;;5027282;28;20029;-90
2023/03/29 11:52:19;;;;;;;4.85;3.15;;;13.70;75.40;;;;;;5048622;28;20075;-90
2023/03/29 11:54:51;;;;;;;4.53;3.30;;;13.70;75.40;;;;;;5040371;28;20107;-91
2023/03/29 11:57:20;;;;;;;4.97;3.60;;;13.80;75.40;;;;;;5039319;28;20048;-89
2023/03/29 12:00:00;;;;;;;4.53;3.30;;;13.80;75.30;;;;;;5051817;28;20021;-88
2023/03/29 12:02:41;;;;;;;4.90;3.70;;;13.90;75.30;;;;;;5048847;28;20312;-88
2023/03/29 12:05:48;;;;;;;4.38;3.30;;;13.90;75.30;;;;;;5041567;28;20074;-91
2023/03/29 12:08:24;;;;;;;4.63;3.00;;;13.90;75.30;;;;;;5039515;28;20017;-91
2023/03/29 12:11:07;;;;;;;4.55;3.63;;;14.00;75.30;;;;;;5048936;28;20055;-91
2023/03/29 12:13:41;;;;;;;4.53;3.17;;;14.00;75.30;;;;;;5052829;28;20466;-91
2023/03/29 12:16:51;;;;;;;4.53;3.20;;;14.10;75.30;;;;;;5041911;28;20029;-90
2023/03/29 12:19:24;;;;;;;3.72;2.92;;;14.10;75.30;;;;;;4993633;28;20282;-89
2023/03/29 12:21:54;;;;;;;4.20;3.30;;;14.10;75.30;;;;;;4991404;28;20033;-91
2023/03/29 12:24:21;;;;;;;4.75;3.60;;;14.10;75.30;;;;;;5013812;28;20477;-89
2023/03/29 12:27:19;;;;;;;4.88;3.75;;;14.20;75.40;;;;;;5039338;28;20067;-89
2023/03/29 12:30:02;;;;;;;4.53;3.35;;;14.20;75.30;;;;;;5068695;28;20032;-89
2023/03/29 12:33:03;;;;;;;4.55;3.35;;;14.30;75.40;;;;;;5045395;28;20032;-90
2023/03/29 12:36:21;;;;;;;4.45;3.40;;;14.30;75.50;;;;;;5060860;28;20430;-91
2023/03/29 12:39:20;;;;;;;4.88;3.03;;;14.30;75.50;;;;;;5012845;28;20112;-88
2023/03/29 12:42:13;;;;;;;4.68;3.35;;;14.30;75.40;;;;;;5063331;28;20340;-90
2023/03/29 12:45:27;;;;;;;4.05;3.20;;;14.30;75.40;;;;;;5002997;28;20034;-88
2023/03/29 12:47:54;;;;;;;4.43;3.03;;;14.40;75.50;;;;;;5041993;28;20028;-89
2023/03/29 12:50:36;;;;;;;4.10;3.08;;;14.40;75.50;;;;;;5038621;28;20047;-89
2023/03/29 12:53:12;;;;;;;4.70;3.22;;;14.40;75.60;;;;;;5050824;28;20124;-89
2023/03/29 12:55:41;;;;;;;3.97;3.05;;;14.50;75.60;;;;;;5057671;28;20036;-88
2023/03/29 12:58:38;;;;;;;4.65;3.58;;;14.50;75.60;;;;;;5060872;28;20031;-87
2023/03/29 13:01:28;;;;;;;4.50;3.40;;;14.50;75.70;;;;;;5057263;28;20040;-85
2023/03/29 13:04:00;;;;;;;4.20;3.25;;;14.50;75.70;;;;;;5044075;28;20039;-87
2023/03/29 13:06:28;;;;;;;5.00;3.15;;;14.50;75.60;;;;;;5039229;28;20528;-87
2023/03/29 13:09:23;;;;;;;4.50;3.42;;;14.60;75.70;;;;;;5055386;28;20480;-88
2023/03/29 13:12:19;;;;;;;4.22;3.20;;;14.60;75.80;;;;;;5030204;28;20049;-88
2023/03/29 13:14:51;;;;;;;4.82;3.25;;;14.60;75.70;;;;;;5048978;28;20067;-89
2023/03/29 13:17:35;;;;;;;4.25;3.15;;;14.60;75.60;;;;;;5035824;28;20108;-88
2023/03/29 13:20:33;;;;;;;4.68;3.60;;;14.60;75.70;;;;;;5050795;28;20491;-89
2023/03/29 13:23:01;;;;;;;4.80;3.13;;;14.60;75.60;;;;;;5030305;28;20139;-88
2023/03/29 13:25:51;;;;;;;4.10;3.13;;;14.70;75.70;;;;;;5056029;28;20017;-91
2023/03/29 13:28:49;;;;;;;4.30;3.20;;;14.70;75.70;;;;;;5051248;28;20461;-87
2023/03/29 13:31:31;;;;;;;4.07;3.35;;;14.70;75.70;;;;;;5020769;28;20199;-91
2023/03/29 13:34:21;;;;;;;5.15;3.20;;;14.80;75.70;;;;;;5039774;28;20016;-90
2023/03/29 13:37:06;;;;;;;5.28;3.38;;;14.80;75.60;;;;;;5064148;28;20021;-90